createdAt,value
2023-04-18T00:00:02.476Z,10.24
2023-04-18T00:07:01.990Z,10.28
2023-04-18T00:14:01.755Z,9.9
2023-04-18T00:21:01.406Z,9.9
2023-04-18T00:28:01.668Z,10.02
2023-04-18T00:35:02.191Z,9.61
2023-04-18T00:42:01.908Z,9.61
2023-04-18T00:49:01.950Z,9.59
2023-04-18T00:56:02.187Z,9.54
2023-04-18T01:00:01.720Z,9.54
2023-04-18T01:07:01.855Z,9.61
2023-04-18T01:14:02.265Z,9.2
2023-04-18T01:21:01.717Z,9.13
2023-04-18T01:28:01.792Z,9.13
2023-04-18T01:35:02.283Z,8.86
2023-04-18T01:42:01.957Z,9.06
2023-04-18T01:49:02.001Z,9.06
2023-04-18T01:56:01.747Z,8.9
2023-04-18T02:00:02.321Z,8.62
2023-04-18T02:07:01.703Z,8.62
2023-04-18T02:14:02.165Z,8.84
2023-04-18T02:21:02.201Z,8.74
2023-04-18T02:28:01.343Z,8.74
2023-04-18T02:35:02.038Z,8.63
2023-04-18T02:42:02.047Z,8.52
2023-04-18T02:49:01.871Z,8.48
2023-04-18T02:56:01.832Z,8.48
2023-04-18T03:00:02.448Z,8.32
2023-04-18T03:07:02.231Z,8.32
2023-04-18T03:14:01.650Z,8.13
2023-04-18T03:21:02.051Z,8.07
2023-04-18T03:28:02.118Z,8.06
2023-04-18T03:35:01.679Z,8.06
2023-04-18T03:42:02.227Z,7.71
2023-04-18T03:49:02.294Z,7.77
2023-04-18T03:56:01.359Z,7.64
2023-04-18T04:00:02.003Z,7.64
2023-04-18T04:07:01.866Z,7.66
2023-04-18T04:14:02.049Z,7.66
2023-04-18T04:21:01.644Z,7.5
2023-04-18T04:28:01.518Z,7.58
2023-04-18T04:35:01.773Z,7.49
2023-04-18T04:42:01.989Z,7.49
2023-04-18T04:49:01.870Z,7.48
2023-04-18T04:56:02.164Z,7.39
2023-04-18T05:00:01.791Z,7.39
2023-04-18T05:07:02.015Z,7.42
2023-04-18T05:14:01.655Z,7.48
2023-04-18T05:21:02.250Z,7.48
2023-04-18T05:28:01.957Z,7.54
2023-04-18T05:35:02.535Z,7.47
2023-04-18T05:42:02.257Z,7.77
2023-04-18T05:49:02.064Z,7.77
2023-04-18T05:56:02.286Z,7.81
2023-04-18T06:00:01.989Z,7.81
2023-04-18T06:07:02.092Z,7.8
2023-04-18T06:14:02.215Z,8.03
2023-04-18T06:21:01.592Z,8.1
2023-04-18T06:28:01.603Z,8.1
2023-04-18T06:35:01.574Z,8.18
2023-04-18T06:42:02.102Z,8.25
2023-04-18T06:49:02.026Z,8.25
2023-04-18T06:56:02.158Z,8.61
2023-04-18T07:00:01.732Z,8.53
2023-04-18T07:07:01.795Z,8.53
2023-04-18T07:14:01.701Z,8.7
2023-04-18T07:21:01.878Z,8.81
2023-04-18T07:28:01.708Z,8.89
2023-04-18T07:35:02.338Z,8.89
2023-04-18T07:42:01.793Z,8.99
2023-04-18T07:49:01.969Z,8.97
2023-04-18T07:56:01.424Z,8.97
2023-04-18T08:00:01.986Z,9.14
2023-04-18T08:07:01.501Z,9.23
2023-04-18T08:14:01.878Z,9.23
2023-04-18T08:21:01.389Z,9.23
2023-04-18T08:28:01.487Z,9.23
2023-04-18T08:35:01.866Z,9.23
2023-04-18T16:21:01.823Z,13.98
2023-04-18T16:28:01.868Z,13.87
2023-04-18T16:35:02.319Z,13.87
2023-04-18T16:42:02.193Z,13.8
2023-04-18T16:49:01.501Z,13.8
2023-04-18T16:56:02.308Z,13.7
2023-04-18T17:00:01.865Z,13.7
2023-04-18T17:07:02.338Z,13.49
2023-04-18T17:14:01.311Z,13.49
2023-04-18T17:21:01.663Z,13.46
2023-04-18T17:28:01.600Z,13.37
2023-04-18T17:35:02.019Z,13.35
2023-04-18T17:42:01.546Z,13.35
2023-04-18T17:49:01.416Z,13.37
2023-04-18T17:56:02.098Z,13.24
2023-04-18T18:00:01.887Z,13.24
2023-04-18T18:07:02.153Z,13.11
2023-04-18T18:14:01.624Z,13.03
2023-04-18T18:21:01.735Z,13.03
2023-04-18T18:28:01.745Z,12.78
2023-04-18T18:35:02.220Z,12.66
2023-04-18T18:42:01.699Z,12.67
2023-04-18T18:49:02.288Z,12.67
2023-04-18T18:56:01.621Z,12.45
2023-04-18T19:00:02.273Z,12.45
2023-04-18T19:07:01.430Z,12.36
2023-04-18T19:14:01.913Z,12.25
2023-04-18T19:21:01.638Z,12.25
2023-04-18T19:28:02.052Z,12.25
2023-04-18T19:35:02.250Z,12.25
